Time;durP1;ratioP1;P1;durP2;ratioP2;P2;SDS_P1;SDS_P2;PMS_P1;PMS_P2;Temp;Humidity;BMP_temperature;BMP_pressure;BME280_temperature;BME280_humidity;BME280_pressure;Samples;Min_cycle;Max_cycle;Signal;HPM_P1;HPM_P2
2022/03/20 00:00:25;;;;;;;34.78;15.43;;;8.70;99.90;;;;;;5098123;28;20040;-78
2022/03/20 00:02:51;;;;;;;36.20;16.42;;;8.70;99.90;;;;;;5096941;28;20077;-79
2022/03/20 00:05:17;;;;;;;37.05;16.05;;;8.80;99.90;;;;;;5096755;28;20024;-78
2022/03/20 00:07:44;;;;;;;23.67;14.20;;;8.70;99.90;;;;;;5096450;28;20024;-78
2022/03/20 00:10:11;;;;;;;36.55;16.33;;;8.80;99.90;;;;;;5096560;28;20028;-79
2022/03/20 00:12:37;;;;;;;28.60;15.65;;;8.90;99.90;;;;;;5097669;28;20136;-78
2022/03/20 00:15:04;;;;;;;24.42;14.40;;;8.90;99.90;;;;;;5097647;28;20404;-78
2022/03/20 00:17:30;;;;;;;25.27;14.75;;;8.90;99.90;;;;;;5085820;28;20145;-78
2022/03/20 00:19:57;;;;;;;29.65;14.60;;;9.00;99.90;;;;;;5098091;28;20058;-79
2022/03/20 00:22:26;;;;;;;25.85;14.02;;;9.00;99.90;;;;;;5097694;28;20396;-78
2022/03/20 00:24:52;;;;;;;29.63;14.85;;;9.00;99.90;;;;;;5097911;28;20024;-78
2022/03/20 00:27:18;;;;;;;31.02;16.08;;;9.00;99.90;;;;;;5096541;28;20547;-78
2022/03/20 00:29:44;;;;;;;25.75;13.43;;;9.00;99.90;;;;;;5097743;28;20051;-78
2022/03/20 00:32:12;;;;;;;25.55;14.40;;;9.00;99.90;;;;;;5096227;28;20052;-78
2022/03/20 00:34:39;;;;;;;26.50;15.63;;;9.00;99.90;;;;;;5096281;28;20107;-78
2022/03/20 00:37:07;;;;;;;34.70;15.18;;;9.10;99.90;;;;;;5097355;28;20027;-78
2022/03/20 00:39:34;;;;;;;26.85;12.98;;;9.00;99.90;;;;;;5095978;28;20066;-79
2022/03/20 00:42:00;;;;;;;34.38;16.45;;;9.10;99.90;;;;;;5096003;28;20051;-78
2022/03/20 00:44:26;;;;;;;23.50;14.80;;;9.10;99.90;;;;;;5095893;28;20016;-79
2022/03/20 00:46:52;;;;;;;25.77;13.98;;;9.20;99.90;;;;;;5097450;28;20028;-78
2022/03/20 00:49:18;;;;;;;31.30;16.38;;;9.30;99.90;;;;;;5096325;28;20507;-78
2022/03/20 00:51:44;;;;;;;28.25;14.40;;;9.30;99.90;;;;;;5097033;28;20403;-78
2022/03/20 00:54:11;;;;;;;40.85;15.88;;;9.30;99.90;;;;;;5097380;28;20031;-78
2022/03/20 00:56:38;;;;;;;28.42;13.90;;;9.40;99.90;;;;;;5097217;28;20020;-78
2022/03/20 00:59:04;;;;;;;30.30;14.57;;;9.40;99.90;;;;;;5096032;28;20062;-78
2022/03/20 01:01:32;;;;;;;29.95;14.00;;;9.40;99.90;;;;;;5097355;28;20099;-78
2022/03/20 01:03:57;;;;;;;29.77;13.95;;;9.40;99.90;;;;;;5097314;28;20174;-78
2022/03/20 01:06:23;;;;;;;29.08;13.82;;;9.40;99.90;;;;;;5095809;28;20024;-78
2022/03/20 01:08:50;;;;;;;31.02;13.35;;;9.40;99.90;;;;;;5097174;28;20039;-78
2022/03/20 01:11:17;;;;;;;22.30;12.55;;;9.40;99.90;;;;;;5096979;28;20468;-79
2022/03/20 01:13:43;;;;;;;27.88;13.00;;;9.40;99.90;;;;;;5096709;28;20020;-78
2022/03/20 01:16:09;;;;;;;28.35;13.57;;;9.40;99.90;;;;;;5097051;28;20017;-78
2022/03/20 01:18:36;;;;;;;21.73;11.93;;;9.50;99.90;;;;;;5097306;28;20035;-78
2022/03/20 01:21:01;;;;;;;27.92;13.55;;;9.50;99.90;;;;;;5095697;28;20133;-78
2022/03/20 01:23:28;;;;;;;31.75;12.95;;;9.50;99.90;;;;;;5095196;28;20103;-78
2022/03/20 01:25:54;;;;;;;26.08;12.65;;;9.50;99.90;;;;;;5096082;28;20031;-78
2022/03/20 01:28:20;;;;;;;24.90;11.82;;;9.50;99.90;;;;;;5095300;28;20036;-78
2022/03/20 01:30:47;;;;;;;25.55;13.52;;;9.50;99.90;;;;;;5083358;28;20012;-78
2022/03/20 01:33:15;;;;;;;26.52;12.95;;;9.50;99.90;;;;;;5097098;28;20024;-78
2022/03/20 01:35:42;;;;;;;26.60;12.57;;;9.50;99.90;;;;;;5095859;28;20021;-78
2022/03/20 01:38:08;;;;;;;26.30;13.05;;;9.50;99.90;;;;;;5095561;28;20031;-78
2022/03/20 01:40:35;;;;;;;28.45;13.27;;;9.60;99.90;;;;;;5095497;28;20052;-78
2022/03/20 01:43:01;;;;;;;28.60;13.68;;;9.60;99.90;;;;;;5096492;28;20028;-78
2022/03/20 01:45:27;;;;;;;33.28;12.98;;;9.60;99.90;;;;;;5097039;28;20024;-78
2022/03/20 01:47:54;;;;;;;38.28;13.88;;;9.60;99.90;;;;;;5096780;28;20042;-79
2022/03/20 01:50:25;;;;;;;23.85;12.98;;;9.50;99.90;;;;;;5095399;28;20122;-78
2022/03/20 01:52:53;;;;;;;28.92;12.68;;;9.50;99.90;;;;;;5096753;28;20385;-78
2022/03/20 01:55:22;;;;;;;26.05;13.40;;;9.60;99.90;;;;;;5097081;28;20016;-78
2022/03/20 01:57:49;;;;;;;32.88;13.60;;;9.60;99.90;;;;;;5095280;28;20028;-78
2022/03/20 02:00:17;;;;;;;30.50;13.60;;;9.60;99.90;;;;;;5096489;28;20024;-78
2022/03/20 02:02:43;;;;;;;35.22;13.93;;;9.50;99.90;;;;;;5097220;28;20081;-78
2022/03/20 02:05:10;;;;;;;30.48;12.85;;;9.60;99.90;;;;;;5100451;28;20032;-79
2022/03/20 02:07:37;;;;;;;30.83;13.07;;;9.60;99.90;;;;;;5100224;28;20024;-79
2022/03/20 02:10:04;;;;;;;28.48;13.20;;;9.60;99.90;;;;;;5090893;28;20033;-78
2022/03/20 02:12:31;;;;;;;24.10;12.45;;;9.60;99.90;;;;;;5095727;28;20024;-79
2022/03/20 02:15:01;;;;;;;29.77;14.90;;;9.60;99.90;;;;;;5098482;28;20503;-79
2022/03/20 02:17:30;;;;;;;28.90;13.30;;;9.60;99.90;;;;;;5098873;28;20080;-78
2022/03/20 02:19:57;;;;;;;25.33;14.23;;;9.60;99.90;;;;;;5098550;28;20263;-79
2022/03/20 02:22:26;;;;;;;31.67;13.93;;;9.60;99.90;;;;;;5099939;28;20024;-79
2022/03/20 02:24:52;;;;;;;33.92;12.57;;;9.60;99.90;;;;;;5099915;28;20099;-78
2022/03/20 02:27:27;;;;;;;32.95;14.00;;;9.60;99.90;;;;;;5098302;28;20062;-78
2022/03/20 02:30:01;;;;;;;36.38;15.07;;;9.60;99.90;;;;;;5099555;28;20016;-78
2022/03/20 02:32:31;;;;;;;28.85;13.15;;;9.60;99.90;;;;;;5100012;28;20099;-78
2022/03/20 02:34:58;;;;;;;;;;;9.60;99.90;;;;;;5098612;28;20438;-78
2022/03/20 02:37:25;;;;;;;24.27;14.18;;;9.60;99.90;;;;;;5099841;28;20501;-78
2022/03/20 02:39:55;;;;;;;31.63;15.05;;;9.60;99.90;;;;;;5098268;28;20131;-78
2022/03/20 02:42:23;;;;;;;27.20;13.38;;;9.60;99.90;;;;;;5098241;28;20024;-78
2022/03/20 02:45:00;;;;;;;33.88;14.00;;;9.60;99.90;;;;;;5097980;28;20039;-78
2022/03/20 02:47:32;;;;;;;26.85;12.38;;;9.60;99.90;;;;;;5099700;28;20023;-78
2022/03/20 02:50:06;;;;;;;36.50;12.45;;;9.60;99.90;;;;;;5098039;28;20036;-78
2022/03/20 02:52:53;;;;;;;31.13;12.52;;;9.60;99.90;;;;;;5098770;28;20392;-78
2022/03/20 02:55:21;;;;;;;27.65;12.43;;;9.60;99.90;;;;;;5077465;28;20036;-78
2022/03/20 02:57:48;;;;;;;26.48;13.52;;;9.60;99.90;;;;;;5099231;28;20499;-78
2022/03/20 03:00:21;;;;;;;22.45;13.50;;;9.60;99.90;;;;;;5097955;28;20032;-78
2022/03/20 03:02:48;;;;;;;25.02;13.13;;;9.60;99.90;;;;;;5097878;28;20024;-79
2022/03/20 03:05:16;;;;;;;31.17;14.57;;;9.60;99.90;;;;;;5097864;28;20055;-78
2022/03/20 03:13:14;;;;;;;31.45;15.25;;;9.70;99.90;;;;;;5098387;28;20096;-78
2022/03/20 03:15:41;;;;;;;31.15;14.00;;;9.60;99.90;;;;;;5097625;28;20122;-78
2022/03/20 03:18:07;;;;;;;25.20;13.73;;;9.60;99.90;;;;;;5099003;28;20099;-78
2022/03/20 03:20:34;;;;;;;29.02;14.15;;;9.70;99.90;;;;;;5098799;28;20074;-78
2022/03/20 03:23:00;;;;;;;24.80;12.68;;;9.60;99.90;;;;;;5098961;28;20072;-78
2022/03/20 03:25:26;;;;;;;25.08;13.38;;;9.60;99.90;;;;;;5098812;28;20549;-78
2022/03/20 03:27:53;;;;;;;28.05;13.75;;;9.70;99.90;;;;;;5097380;28;20509;-79
2022/03/20 03:30:19;;;;;;;23.58;13.52;;;9.70;99.90;;;;;;5097085;28;20109;-78
2022/03/20 03:32:46;;;;;;;32.17;13.48;;;9.70;99.90;;;;;;5099078;28;20020;-78
2022/03/20 03:38:00;;;;;;;29.52;15.18;;;9.70;99.90;;;;;;5095847;28;20438;-78
2022/03/20 03:40:26;;;;;;;31.38;14.88;;;9.80;99.90;;;;;;5097152;28;20048;-78
2022/03/20 03:42:52;;;;;;;29.25;13.15;;;9.70;99.90;;;;;;5097046;28;20020;-77
2022/03/20 03:45:18;;;;;;;23.00;14.10;;;9.70;99.90;;;;;;5098330;28;20373;-77
2022/03/20 03:47:44;;;;;;;25.90;13.10;;;9.70;99.90;;;;;;5098462;28;20067;-78
2022/03/20 03:50:11;;;;;;;28.30;13.82;;;9.70;99.90;;;;;;5098126;28;20072;-78
2022/03/20 03:52:37;;;;;;;29.13;12.90;;;9.70;99.90;;;;;;5096826;28;20024;-79
2022/03/20 03:55:05;;;;;;;29.20;13.05;;;9.70;99.90;;;;;;5098320;28;20027;-78
2022/03/20 03:57:30;;;;;;;23.52;13.65;;;9.70;99.90;;;;;;5096761;28;20016;-78
2022/03/20 03:59:56;;;;;;;33.63;13.23;;;9.70;99.90;;;;;;5098092;28;20523;-78
2022/03/20 04:02:22;;;;;;;24.40;12.25;;;9.70;99.90;;;;;;5098310;28;20170;-78
2022/03/20 04:04:48;;;;;;;24.63;12.10;;;9.70;99.90;;;;;;5097121;28;20031;-78
2022/03/20 04:07:18;;;;;;;30.42;13.60;;;9.70;99.90;;;;;;5097192;28;20058;-78
2022/03/20 04:09:47;;;;;;;26.92;12.90;;;9.70;99.90;;;;;;5096744;28;20035;-78
2022/03/20 04:12:13;;;;;;;31.15;15.40;;;9.70;99.90;;;;;;5096530;28;20514;-78
2022/03/20 04:14:40;;;;;;;25.40;13.68;;;9.70;99.90;;;;;;5097554;28;20035;-78
2022/03/20 04:17:06;;;;;;;29.92;14.10;;;9.70;99.90;;;;;;5097952;28;20052;-77
2022/03/20 04:19:32;;;;;;;27.20;14.32;;;9.70;99.90;;;;;;5096829;28;20502;-78
2022/03/20 04:21:59;;;;;;;24.63;12.88;;;9.70;99.90;;;;;;5097592;28;20478;-77
2022/03/20 04:24:25;;;;;;;39.13;14.40;;;9.70;99.90;;;;;;5096107;28;20032;-78
2022/03/20 04:26:53;;;;;;;24.63;13.52;;;9.70;99.90;;;;;;5096318;28;20016;-77
2022/03/20 04:29:21;;;;;;;33.13;13.32;;;9.70;99.90;;;;;;5097369;28;20051;-78
2022/03/20 04:31:48;;;;;;;28.75;13.82;;;9.70;99.90;;;;;;5096157;28;20503;-78
2022/03/20 04:34:14;;;;;;;32.42;13.90;;;9.70;99.90;;;;;;5097637;28;20051;-79
2022/03/20 04:36:41;;;;;;;31.30;13.43;;;9.70;99.90;;;;;;5097477;28;20020;-78
2022/03/20 04:39:08;;;;;;;30.33;13.30;;;9.70;99.90;;;;;;5097509;28;20101;-78
2022/03/20 04:41:35;;;;;;;22.83;13.45;;;9.70;99.90;;;;;;5096958;28;20089;-78
2022/03/20 04:44:01;;;;;;;32.85;15.18;;;9.70;99.90;;;;;;5095983;28;20032;-78
2022/03/20 04:46:27;;;;;;;28.92;15.13;;;9.70;99.90;;;;;;5096102;28;20024;-78
2022/03/20 04:59:53;;;;;;;33.05;14.18;;;9.80;99.90;;;;;;5096944;28;20093;-77
2022/03/20 05:02:19;;;;;;;30.88;14.85;;;9.90;99.90;;;;;;5097257;28;20073;-78
2022/03/20 05:04:45;;;;;;;37.08;15.70;;;9.80;99.90;;;;;;5097434;28;20016;-77
2022/03/20 05:07:14;;;;;;;28.77;15.70;;;9.90;99.90;;;;;;5097274;28;20028;-78
2022/03/20 05:15:10;;;;;;;31.73;16.83;;;10.00;99.90;;;;;;5097394;28;20511;-78
2022/03/20 05:17:36;;;;;;;29.20;15.98;;;10.00;99.90;;;;;;5097012;28;20046;-78
2022/03/20 05:20:03;;;;;;;36.20;15.68;;;10.00;99.90;;;;;;5095763;28;20089;-78
2022/03/20 05:22:31;;;;;;;30.95;17.23;;;10.00;99.90;;;;;;5097126;28;20028;-78
2022/03/20 05:24:57;;;;;;;36.95;16.27;;;10.00;99.90;;;;;;5095829;28;20028;-78
2022/03/20 05:27:23;;;;;;;30.25;15.23;;;10.10;99.90;;;;;;5095461;28;20115;-79
2022/03/20 05:29:49;;;;;;;35.10;14.88;;;10.10;99.90;;;;;;5095416;28;20063;-78
2022/03/20 05:32:15;;;;;;;24.33;15.77;;;10.00;99.90;;;;;;5092634;28;20048;-78
2022/03/20 05:34:41;;;;;;;31.98;15.48;;;10.10;99.90;;;;;;5085146;28;20378;-77
2022/03/20 05:37:08;;;;;;;28.17;14.98;;;10.10;99.90;;;;;;5098078;28;20109;-78
2022/03/20 05:39:34;;;;;;;34.95;16.27;;;10.10;99.90;;;;;;5099386;28;20028;-78
2022/03/20 05:42:01;;;;;;;30.13;14.15;;;10.10;99.90;;;;;;5099331;28;20028;-77
2022/03/20 05:44:27;;;;;;;29.63;14.30;;;10.10;99.90;;;;;;5099191;28;20500;-79
2022/03/20 05:46:54;;;;;;;25.15;14.75;;;10.20;99.90;;;;;;5099176;28;20020;-78
2022/03/20 05:49:22;;;;;;;28.65;15.02;;;10.20;99.90;;;;;;5100711;28;20384;-78
2022/03/20 05:51:49;;;;;;;31.33;13.65;;;10.10;99.90;;;;;;5099174;28;20055;-78
2022/03/20 05:54:16;;;;;;;25.30;13.57;;;10.10;99.90;;;;;;5100718;28;20099;-78
2022/03/20 05:59:27;;;;;;;30.65;14.30;;;10.10;99.90;;;;;;5092377;28;20032;-78
2022/03/20 06:01:54;;;;;;;26.60;13.80;;;10.10;99.90;;;;;;5099480;28;20020;-78
2022/03/20 06:04:21;;;;;;;30.58;14.93;;;10.20;99.90;;;;;;5099269;28;20046;-78
2022/03/20 06:06:48;;;;;;;39.60;15.05;;;10.20;99.90;;;;;;5100549;28;20024;-80
2022/03/20 06:09:14;;;;;;;29.88;13.57;;;10.20;99.90;;;;;;5098903;28;20111;-79
2022/03/20 06:11:41;;;;;;;24.80;14.48;;;10.20;99.90;;;;;;5100210;28;20032;-79
2022/03/20 06:14:08;;;;;;;27.40;13.90;;;10.20;99.90;;;;;;5098495;28;20480;-78
2022/03/20 06:16:38;;;;;;;25.30;13.98;;;10.20;99.90;;;;;;5100330;28;20042;-78
2022/03/20 06:19:07;;;;;;;25.98;13.63;;;10.20;99.90;;;;;;5100047;28;20020;-78
2022/03/20 06:21:34;;;;;;;26.77;13.80;;;10.20;99.90;;;;;;5100070;28;20061;-79
2022/03/20 06:24:00;;;;;;;26.88;14.30;;;10.30;99.90;;;;;;5099900;28;20066;-78
2022/03/20 06:26:26;;;;;;;31.98;15.48;;;10.30;99.90;;;;;;5099926;28;20024;-81
2022/03/20 06:28:53;;;;;;;30.73;14.45;;;10.30;99.90;;;;;;5098301;28;20035;-79
2022/03/20 06:31:20;;;;;;;30.70;12.57;;;10.30;99.90;;;;;;5099945;28;20051;-79
2022/03/20 06:33:47;;;;;;;22.65;12.05;;;10.30;99.90;;;;;;5098528;28;20023;-78
2022/03/20 06:36:14;;;;;;;28.25;14.20;;;10.30;99.90;;;;;;5098489;28;20039;-77
2022/03/20 06:38:40;;;;;;;21.42;14.45;;;10.40;99.90;;;;;;5099653;28;20512;-78
2022/03/20 06:41:07;;;;;;;29.23;14.63;;;10.40;99.90;;;;;;5098181;28;20424;-79
2022/03/20 06:43:35;;;;;;;26.92;14.18;;;10.40;99.90;;;;;;5099222;28;20507;-78
2022/03/20 06:46:01;;;;;;;24.38;13.43;;;10.50;99.90;;;;;;5099838;28;20031;-77
2022/03/20 06:48:27;;;;;;;30.23;13.80;;;10.50;99.90;;;;;;5093361;28;20061;-79
2022/03/20 06:50:53;;;;;;;23.48;11.65;;;10.60;99.90;;;;;;5099979;28;20029;-78
2022/03/20 06:53:19;;;;;;;32.65;14.00;;;10.60;99.90;;;;;;5099341;28;20020;-77
2022/03/20 06:55:47;;;;;;;22.02;13.52;;;10.70;99.90;;;;;;5098166;28;20020;-78
2022/03/20 06:58:17;;;;;;;22.23;12.60;;;10.70;99.90;;;;;;5097607;28;20492;-78
2022/03/20 07:00:43;;;;;;;26.10;12.80;;;10.70;99.90;;;;;;5099433;28;20028;-78
2022/03/20 07:03:09;;;;;;;25.60;12.35;;;10.80;99.90;;;;;;5099231;28;20032;-78
2022/03/20 07:05:36;;;;;;;23.52;13.23;;;10.90;99.90;;;;;;5097941;28;20377;-78
2022/03/20 07:08:04;;;;;;;26.13;12.93;;;10.90;99.90;;;;;;5099142;28;20479;-78
2022/03/20 07:10:31;;;;;;;23.23;12.40;;;10.90;99.90;;;;;;5099001;28;20041;-78
2022/03/20 07:15:48;;;;;;;22.45;12.25;;;11.00;99.90;;;;;;5099174;28;20077;-78
2022/03/20 07:18:17;;;;;;;25.60;11.93;;;11.00;99.90;;;;;;5097721;28;20027;-78
2022/03/20 07:20:44;;;;;;;32.88;13.32;;;11.00;99.90;;;;;;5097446;28;20107;-78
2022/03/20 07:23:11;;;;;;;20.15;10.82;;;11.00;99.90;;;;;;5099106;28;20092;-77
2022/03/20 07:31:09;;;;;;;20.60;11.00;;;11.20;99.90;;;;;;5087606;28;20035;-78
2022/03/20 07:33:35;;;;;;;27.55;12.32;;;11.20;99.90;;;;;;5098570;28;20024;-77
2022/03/20 07:36:01;;;;;;;23.15;12.15;;;11.30;99.90;;;;;;5095941;28;20044;-80
2022/03/20 07:38:27;;;;;;;18.40;11.50;;;11.30;99.90;;;;;;5097616;28;20399;-78
2022/03/20 07:40:54;;;;;;;17.17;10.65;;;11.40;99.90;;;;;;5098680;28;20111;-78
2022/03/20 07:43:20;;;;;;;17.30;9.43;;;11.40;99.90;;;;;;5096659;28;20026;-78
2022/03/20 07:45:46;;;;;;;14.18;9.15;;;11.50;99.90;;;;;;5097198;28;20032;-78
2022/03/20 07:48:13;;;;;;;16.50;9.05;;;11.50;99.90;;;;;;5098489;28;20118;-78
2022/03/20 07:50:40;;;;;;;15.75;8.50;;;11.50;99.90;;;;;;5098122;28;20553;-79
2022/03/20 07:53:06;;;;;;;23.25;9.13;;;11.60;99.90;;;;;;5099012;28;20020;-78
2022/03/20 07:55:34;;;;;;;16.45;9.63;;;11.60;99.90;;;;;;5098398;28;20472;-77
2022/03/20 07:58:00;;;;;;;19.58;9.20;;;11.70;99.90;;;;;;5097972;28;20016;-78
2022/03/20 08:00:27;;;;;;;18.75;10.18;;;11.70;99.90;;;;;;5097260;28;20027;-78
2022/03/20 08:02:53;;;;;;;17.88;8.40;;;11.70;99.90;;;;;;5097374;28;20048;-78
2022/03/20 08:05:20;;;;;;;16.67;8.60;;;11.80;99.90;;;;;;5097714;28;20104;-77
2022/03/20 08:07:46;;;;;;;20.80;8.25;;;11.80;99.90;;;;;;5095194;28;20028;-78
2022/03/20 08:10:13;;;;;;;14.02;8.82;;;11.90;99.90;;;;;;5097313;28;20059;-78
2022/03/20 08:12:39;;;;;;;17.90;8.10;;;12.00;99.90;;;;;;5091865;28;20052;-78
2022/03/20 08:15:07;;;;;;;9.80;6.47;;;12.00;99.90;;;;;;5078875;28;20099;-78
2022/03/20 08:17:43;;;;;;;12.55;7.85;;;12.10;99.90;;;;;;5094205;28;20514;-78
2022/03/20 08:20:10;;;;;;;14.18;8.50;;;12.10;99.90;;;;;;5096344;28;20492;-78
2022/03/20 08:22:37;;;;;;;16.95;8.20;;;12.20;99.90;;;;;;5097513;28;20024;-78
2022/03/20 08:25:04;;;;;;;16.20;8.00;;;12.20;99.90;;;;;;5096668;28;20039;-77
2022/03/20 08:27:30;;;;;;;13.63;8.45;;;12.30;99.90;;;;;;5097237;28;20020;-78
2022/03/20 08:29:57;;;;;;;13.25;7.93;;;12.30;99.90;;;;;;5096034;28;20031;-77
2022/03/20 08:32:25;;;;;;;13.30;8.30;;;12.30;99.90;;;;;;5096161;28;20056;-77
2022/03/20 08:34:52;;;;;;;14.82;8.38;;;12.40;99.90;;;;;;5096347;28;20451;-77
2022/03/20 08:37:18;;;;;;;12.10;6.90;;;12.40;99.90;;;;;;5097582;28;20031;-78
2022/03/20 08:39:44;;;;;;;21.52;9.02;;;12.50;99.90;;;;;;5096162;28;20028;-77
2022/03/20 08:42:10;;;;;;;12.65;8.48;;;12.50;99.90;;;;;;5096177;28;20115;-78
2022/03/20 08:44:36;;;;;;;17.50;8.05;;;12.60;99.90;;;;;;5095934;28;20499;-77
2022/03/20 08:47:02;;;;;;;18.45;7.28;;;12.70;99.90;;;;;;5097723;28;20028;-78
2022/03/20 08:49:28;;;;;;;17.02;7.57;;;12.80;99.90;;;;;;5095805;28;20374;-77
2022/03/20 08:51:54;;;;;;;12.00;7.85;;;12.80;99.90;;;;;;5091831;28;20074;-80
2022/03/20 08:54:20;;;;;;;22.35;8.25;;;12.80;99.90;;;;;;5087950;28;20031;-78
2022/03/20 08:56:45;;;;;;;13.13;8.73;;;12.80;99.90;;;;;;5097357;28;20035;-78
2022/03/20 08:59:11;;;;;;;16.65;8.52;;;12.80;99.90;;;;;;5097178;28;20107;-77
2022/03/20 09:01:37;;;;;;;11.32;7.68;;;12.90;99.90;;;;;;5095978;28;20031;-77
2022/03/20 09:04:03;;;;;;;13.13;7.25;;;12.90;99.90;;;;;;5097375;28;20024;-77
2022/03/20 09:06:29;;;;;;;14.40;7.78;;;13.00;99.90;;;;;;5096595;28;20028;-78
2022/03/20 09:08:55;;;;;;;15.30;8.77;;;13.00;99.90;;;;;;5095948;28;20115;-77
2022/03/20 09:11:23;;;;;;;17.73;8.82;;;13.10;99.90;;;;;;5088661;28;20027;-77
2022/03/20 09:13:49;;;;;;;16.35;8.88;;;13.20;99.90;;;;;;5093851;28;20013;-77
2022/03/20 09:19:00;;;;;;;16.58;8.30;;;13.40;99.90;;;;;;5082643;28;20024;-77
2022/03/20 09:21:33;;;;;;;13.98;8.30;;;13.50;99.90;;;;;;5094863;28;20486;-77
2022/03/20 09:24:00;;;;;;;18.20;8.23;;;13.50;99.90;;;;;;5100681;28;20058;-77
2022/03/20 09:26:26;;;;;;;14.30;8.77;;;13.60;99.90;;;;;;5100435;28;20476;-78
2022/03/20 09:28:54;;;;;;;15.15;8.23;;;13.70;99.90;;;;;;5100205;28;20157;-78
2022/03/20 09:31:20;;;;;;;13.45;7.80;;;13.80;99.90;;;;;;5099200;28;20016;-77
2022/03/20 09:33:46;;;;;;;19.42;8.55;;;13.80;99.90;;;;;;5098839;28;20024;-79
2022/03/20 09:36:12;;;;;;;12.45;7.53;;;13.80;99.90;;;;;;5099060;28;20027;-78
2022/03/20 09:38:39;;;;;;;14.07;9.30;;;13.90;99.90;;;;;;5096439;28;20016;-77
2022/03/20 09:41:07;;;;;;;14.55;8.88;;;14.00;99.90;;;;;;5100720;28;20071;-77
2022/03/20 09:43:36;;;;;;;12.70;7.25;;;14.20;99.90;;;;;;5099314;28;20020;-77
2022/03/20 09:46:02;;;;;;;16.45;8.23;;;14.30;99.90;;;;;;5078399;28;20055;-76
2022/03/20 09:48:30;;;;;;;11.40;6.30;;;14.40;99.90;;;;;;5099641;28;20020;-77
2022/03/20 09:50:58;;;;;;;8.27;5.35;;;14.40;99.90;;;;;;5099286;28;20046;-79
2022/03/20 09:53:25;;;;;;;12.23;6.07;;;14.40;99.90;;;;;;5099356;28;20380;-77
2022/03/20 09:55:54;;;;;;;11.93;6.18;;;14.30;99.90;;;;;;5100691;28;20377;-78
2022/03/20 09:58:24;;;;;;;15.18;5.15;;;14.20;99.90;;;;;;5100591;28;20068;-77
2022/03/20 10:00:50;;;;;;;9.07;5.70;;;14.30;99.90;;;;;;5100589;28;20026;-77
2022/03/20 10:03:21;;;;;;;8.40;5.20;;;14.40;99.90;;;;;;5100491;28;20055;-79
2022/03/20 10:06:15;;;;;;;9.32;4.88;;;14.50;99.90;;;;;;5100678;28;20055;-77
2022/03/20 10:08:56;;;;;;;8.13;4.50;;;14.40;99.90;;;;;;5099135;28;20035;-80
2022/03/20 10:11:23;;;;;;;15.65;6.50;;;14.40;99.90;;;;;;5099133;28;20032;-81
2022/03/20 10:14:09;;;;;;;13.10;5.88;;;14.30;99.90;;;;;;5099913;28;20423;-78
2022/03/20 10:16:48;;;;;;;7.25;3.97;;;14.30;99.90;;;;;;5100728;28;20020;-77
2022/03/20 10:19:23;;;;;;;15.25;5.55;;;14.30;99.90;;;;;;5100428;28;20020;-79
2022/03/20 10:22:09;;;;;;;8.55;4.63;;;14.40;99.90;;;;;;5099074;28;20024;-77
2022/03/20 10:24:38;;;;;;;10.68;4.82;;;14.50;99.90;;;;;;5097633;28;20095;-78
2022/03/20 10:27:08;;;;;;;10.25;4.60;;;14.60;99.90;;;;;;5099838;28;20039;-77
2022/03/20 10:29:35;;;;;;;9.23;5.15;;;14.70;99.90;;;;;;5098552;28;20036;-78
2022/03/20 10:32:08;;;;;;;7.60;4.57;;;14.90;99.90;;;;;;5099790;28;20036;-78
2022/03/20 10:34:57;;;;;;;6.43;5.25;;;15.10;99.90;;;;;;5100058;28;20043;-78
2022/03/20 10:37:52;;;;;;;9.05;4.45;;;15.20;99.90;;;;;;5086630;28;20024;-77
2022/03/20 10:40:27;;;;;;;10.10;4.35;;;15.10;99.90;;;;;;5099693;28;20097;-78
2022/03/20 10:43:15;;;;;;;6.63;4.10;;;15.00;99.90;;;;;;5099156;28;20107;-78
2022/03/20 10:46:01;;;;;;;7.43;4.65;;;14.70;99.90;;;;;;5099849;28;20028;-79
2022/03/20 10:48:39;;;;;;;8.38;3.97;;;14.60;99.90;;;;;;5099818;28;20024;-80
2022/03/20 10:51:07;;;;;;;9.60;4.07;;;14.60;99.90;;;;;;5097063;28;20043;-81
2022/03/20 10:53:34;;;;;;;7.07;3.85;;;14.70;99.90;;;;;;5099249;28;20044;-80
2022/03/20 10:56:09;;;;;;;6.22;3.38;;;14.70;99.90;;;;;;5099474;28;20454;-80
2022/03/20 10:58:40;;;;;;;7.28;3.35;;;14.80;99.90;;;;;;5098960;28;20020;-77
2022/03/20 11:01:07;;;;;;;9.48;3.42;;;14.80;99.90;;;;;;5098147;28;20085;-80
2022/03/20 11:03:36;;;;;;;8.88;3.75;;;14.80;99.90;;;;;;5098025;28;20043;-80
2022/03/20 11:06:06;;;;;;;5.50;3.15;;;14.80;99.90;;;;;;5097929;28;20136;-80
2022/03/20 11:08:33;;;;;;;6.20;3.53;;;14.90;99.90;;;;;;5098242;28;20032;-80
2022/03/20 11:11:00;;;;;;;3.10;2.53;;;15.00;99.90;;;;;;5097939;28;20028;-81
2022/03/20 11:13:27;;;;;;;4.13;2.22;;;15.00;99.90;;;;;;5097868;28;20022;-80
2022/03/20 11:15:56;;;;;;;6.95;2.97;;;14.80;99.90;;;;;;5097880;28;20052;-81
2022/03/20 11:18:25;;;;;;;3.80;2.42;;;14.70;99.90;;;;;;5082405;28;20051;-80
2022/03/20 11:20:52;;;;;;;4.30;2.35;;;14.70;99.90;;;;;;5095210;28;20861;-80
2022/03/20 11:23:19;;;;;;;43.28;9.65;;;14.80;99.90;;;;;;5098273;28;20054;-79
2022/03/20 11:25:47;;;;;;;3.60;1.73;;;15.10;99.90;;;;;;5097856;28;20373;-80
2022/03/20 11:28:14;;;;;;;13.93;5.10;;;15.20;99.90;;;;;;5099286;28;20047;-79
2022/03/20 11:30:44;;;;;;;16.00;5.68;;;15.40;99.90;;;;;;5098695;28;20484;-78
2022/03/20 11:33:10;;;;;;;3.22;1.55;;;15.40;99.90;;;;;;5099459;28;20012;-80
2022/03/20 11:35:37;;;;;;;2.28;1.88;;;15.50;99.90;;;;;;5098970;28;20020;-79
2022/03/20 11:38:15;;;;;;;3.10;2.00;;;15.30;99.90;;;;;;5098069;28;20434;-80
2022/03/20 11:41:01;;;;;;;2.80;2.15;;;15.20;99.90;;;;;;5099247;28;20079;-78
2022/03/20 11:43:27;;;;;;;3.03;1.85;;;15.10;99.90;;;;;;5098469;28;20048;-79
2022/03/20 11:46:11;;;;;;;2.55;1.80;;;15.20;99.90;;;;;;5097472;28;20069;-79
2022/03/20 11:48:37;;;;;;;4.90;2.70;;;15.10;99.90;;;;;;5097494;28;20096;-80
2022/03/20 11:51:04;;;;;;;3.20;2.10;;;15.00;99.90;;;;;;5097042;28;20647;-79
2022/03/20 11:53:31;;;;;;;3.97;2.40;;;15.00;99.90;;;;;;5098117;28;20418;-79
2022/03/20 11:55:58;;;;;;;4.03;2.50;;;14.90;99.90;;;;;;5098445;28;20024;-78
2022/03/20 11:58:26;;;;;;;3.67;2.38;;;14.90;99.90;;;;;;5087564;28;20028;-80
2022/03/20 12:01:05;;;;;;;4.13;2.63;;;14.80;99.90;;;;;;5098107;28;20085;-79
2022/03/20 12:04:04;;;;;;;8.82;2.75;;;14.80;99.90;;;;;;5096680;28;20035;-80
2022/03/20 12:06:42;;;;;;;5.10;2.42;;;14.90;99.90;;;;;;5098320;28;20023;-80
2022/03/20 12:09:36;;;;;;;4.47;2.80;;;14.90;99.90;;;;;;5096673;28;20028;-79
2022/03/20 12:12:32;;;;;;;8.45;3.00;;;14.90;99.90;;;;;;5096615;28;20028;-79
2022/03/20 12:15:06;;;;;;;6.15;2.78;;;14.90;99.90;;;;;;5098145;28;20716;-79
2022/03/20 12:18:01;;;;;;;5.15;2.90;;;15.00;99.90;;;;;;5097889;28;20016;-79
2022/03/20 12:20:52;;;;;;;5.22;2.90;;;15.00;99.90;;;;;;5084564;28;20028;-80
2022/03/20 12:23:33;;;;;;;6.65;2.90;;;15.00;99.90;;;;;;5098083;28;20020;-80
2022/03/20 12:26:43;;;;;;;6.45;3.20;;;14.90;99.90;;;;;;5097938;28;20020;-79
2022/03/20 12:29:36;;;;;;;6.95;3.05;;;14.80;99.90;;;;;;5087669;28;20089;-80
2022/03/20 12:32:12;;;;;;;5.05;2.72;;;14.80;99.90;;;;;;5097785;28;20024;-79
2022/03/20 12:34:39;;;;;;;3.85;2.72;;;14.80;99.90;;;;;;5096534;28;20031;-81
2022/03/20 12:37:33;;;;;;;4.30;2.55;;;14.80;99.90;;;;;;5097430;28;20023;-80
2022/03/20 12:40:17;;;;;;;3.67;2.40;;;14.80;99.90;;;;;;5090500;28;20040;-83
2022/03/20 12:43:03;;;;;;;5.18;2.55;;;14.90;99.90;;;;;;5095142;28;20028;-81
2022/03/20 12:45:31;;;;;;;3.47;2.70;;;14.90;99.90;;;;;;5097333;28;20020;-81
2022/03/20 12:48:11;;;;;;;7.50;2.80;;;15.00;99.90;;;;;;5097444;28;20072;-80
2022/03/20 12:50:38;;;;;;;;;;;15.10;99.90;;;;;;5097931;28;20111;-80
2022/03/20 12:53:04;;;;;;;5.40;2.88;;;15.10;99.90;;;;;;5086552;28;19912;-80
2022/03/20 12:55:31;;;;;;;5.38;2.80;;;15.10;99.90;;;;;;5091996;28;20035;-80
2022/03/20 12:57:56;;;;;;;5.32;2.80;;;15.20;99.90;;;;;;5081050;28;20027;-80
2022/03/20 13:00:32;;;;;;;4.07;2.65;;;15.30;99.90;;;;;;5095850;28;20032;-80
2022/03/20 13:03:09;;;;;;;3.60;2.33;;;15.50;99.90;;;;;;5096880;28;20484;-81
2022/03/20 13:05:38;;;;;;;4.05;2.50;;;15.60;99.90;;;;;;5095228;28;20027;-81
2022/03/20 13:08:05;;;;;;;5.13;2.70;;;15.50;99.90;;;;;;5094533;28;20115;-80
2022/03/20 13:10:42;;;;;;;4.65;2.58;;;15.50;99.90;;;;;;5096854;28;20088;-80
2022/03/20 13:13:09;;;;;;;3.22;2.55;;;15.40;99.90;;;;;;5095157;28;20020;-80
2022/03/20 13:15:38;;;;;;;7.95;3.28;;;15.30;99.90;;;;;;5096532;28;20020;-80
2022/03/20 13:18:06;;;;;;;6.38;2.20;;;15.40;99.90;;;;;;5095378;28;20070;-81
2022/03/20 13:20:35;;;;;;;2.78;1.90;;;15.30;99.90;;;;;;5096794;28;20028;-81
2022/03/20 13:23:09;;;;;;;8.10;2.30;;;15.10;99.90;;;;;;5096353;28;20020;-80
2022/03/20 13:25:58;;;;;;;3.63;2.33;;;15.00;99.90;;;;;;5096556;28;20024;-80